createdAt,value
2019-04-06T00:02:06.861Z,9.73
2019-04-06T00:04:36.770Z,9.87
2019-04-06T00:07:06.669Z,9.03
2019-04-06T00:09:36.522Z,9.57
2019-04-06T00:12:06.610Z,10.77
2019-04-06T00:14:38.369Z,9.80
2019-04-06T00:17:08.255Z,10.50
2019-04-06T00:19:38.167Z,10.53
2019-04-06T00:22:08.091Z,9.37
2019-04-06T00:24:38.010Z,10.83
2019-04-06T00:27:07.946Z,9.17
2019-04-06T00:29:37.798Z,10.23
2019-04-06T00:32:12.253Z,9.13
2019-04-06T00:34:42.194Z,9.10
2019-04-06T00:37:12.038Z,11.20
2019-04-06T00:39:41.997Z,10.07
2019-04-06T00:42:11.913Z,9.63
2019-04-06T00:44:41.703Z,9.73
2019-04-06T00:47:11.567Z,9.20
2019-04-06T00:49:41.421Z,10.27
2019-04-06T00:52:11.414Z,9.73
2019-04-06T00:54:41.337Z,10.10
2019-04-06T00:57:11.274Z,9.43
2019-04-06T00:59:42.196Z,9.80
2019-04-06T01:02:12.118Z,9.20
2019-04-06T01:04:42.091Z,9.13
2019-04-06T01:07:12.079Z,9.37
2019-04-06T01:09:42.022Z,11.40
2019-04-06T01:12:13.001Z,8.87
2019-04-06T01:14:43.929Z,10.70
2019-04-06T01:17:13.845Z,9.00
2019-04-06T01:19:43.806Z,10.70
2019-04-06T01:22:14.789Z,9.23
2019-04-06T01:24:44.631Z,9.33
2019-04-06T01:27:14.473Z,9.43
2019-04-06T01:29:44.338Z,8.43
2019-04-06T01:32:15.274Z,9.53
2019-04-06T01:34:45.313Z,9.30
2019-04-06T01:37:16.398Z,9.70
2019-04-06T01:39:46.503Z,9.17
2019-04-06T01:42:17.531Z,9.00
2019-04-06T01:44:47.321Z,9.40
2019-04-06T01:47:17.188Z,10.07
2019-04-06T01:49:47.100Z,9.27
2019-04-06T01:52:17.184Z,8.43
2019-04-06T01:54:47.208Z,10.60
2019-04-06T01:57:17.134Z,8.97
2019-04-06T01:59:46.901Z,9.07
2019-04-06T02:02:21.029Z,8.70
2019-04-06T02:04:51.929Z,9.13
2019-04-06T02:07:21.724Z,9.80
2019-04-06T02:09:51.721Z,9.47
2019-04-06T02:12:21.641Z,8.27
2019-04-06T02:14:51.493Z,10.63
2019-04-06T02:17:21.346Z,7.60
2019-04-06T02:19:51.282Z,10.30
2019-04-06T02:22:21.197Z,9.37
2019-04-06T02:24:51.126Z,10.07
2019-04-06T02:27:22.045Z,9.27
2019-04-06T02:30:11.918Z,8.83
2019-04-06T02:33:10.050Z,8.27
2019-04-06T02:35:59.009Z,9.33
2019-04-06T02:38:53.848Z,8.80
2019-04-06T02:41:42.027Z,9.23
2019-04-06T02:44:12.018Z,8.80
2019-04-06T02:46:41.869Z,8.13
2019-04-06T02:49:11.819Z,7.70
2019-04-06T02:51:41.680Z,8.73
2019-04-06T02:54:12.589Z,10.40
2019-04-06T02:56:46.282Z,8.63
2019-04-06T02:59:13.881Z,9.47
2019-04-06T03:01:43.950Z,8.87
2019-04-06T03:04:13.797Z,8.40
2019-04-06T03:06:43.727Z,7.97
2019-04-06T03:09:13.663Z,10.57
2019-04-06T03:11:43.623Z,9.97
2019-04-06T03:14:13.646Z,9.23
2019-04-06T03:16:43.562Z,8.93
2019-04-06T03:19:13.491Z,9.87
2019-04-06T03:21:43.333Z,9.40
2019-04-06T03:24:13.256Z,9.93
2019-04-06T03:26:43.202Z,8.83
2019-04-06T03:29:12.975Z,8.73
2019-04-06T03:31:42.903Z,8.67
2019-04-06T03:34:13.005Z,8.50
2019-04-06T03:36:42.977Z,8.67
2019-04-06T03:39:12.839Z,8.93
2019-04-06T03:41:42.693Z,10.20
2019-04-06T03:44:12.552Z,9.80
2019-04-06T03:46:42.457Z,8.90
2019-04-06T03:49:12.307Z,9.57
2019-04-06T03:51:42.207Z,8.53
2019-04-06T03:54:12.193Z,9.23
2019-04-06T03:56:42.248Z,9.10
2019-04-06T03:59:12.086Z,9.87
2019-04-06T04:01:41.935Z,9.00
2019-04-06T04:04:11.883Z,9.30
2019-04-06T04:06:41.765Z,9.83
2019-04-06T04:09:11.745Z,8.17
2019-04-06T04:11:41.605Z,8.00
2019-04-06T04:14:11.462Z,8.93
2019-04-06T04:16:41.226Z,8.70
2019-04-06T04:19:11.143Z,8.60
2019-04-06T04:21:41.002Z,7.40
2019-04-06T04:24:10.982Z,9.10
2019-04-06T04:26:40.923Z,8.97
2019-04-06T04:29:10.766Z,9.10
2019-04-06T04:31:40.625Z,8.67
2019-04-06T04:34:10.542Z,10.40
2019-04-06T04:36:40.486Z,7.83
2019-04-06T04:39:10.423Z,7.80
2019-04-06T04:41:40.485Z,9.20
2019-04-06T04:44:10.794Z,8.27
2019-04-06T04:46:40.840Z,7.97
2019-04-06T04:49:10.770Z,7.93
2019-04-06T04:51:40.753Z,9.00
2019-04-06T04:54:10.595Z,8.17
2019-04-06T04:56:40.529Z,8.70
2019-04-06T04:59:10.388Z,8.33
2019-04-06T05:01:40.335Z,7.93
2019-04-06T05:04:10.214Z,9.10
2019-04-06T05:06:40.207Z,8.63
2019-04-06T05:09:10.265Z,8.07
2019-04-06T05:11:40.398Z,8.13
2019-04-06T05:14:47.769Z,8.83
2019-04-06T05:17:17.737Z,10.60
2019-04-06T05:19:47.589Z,8.73
2019-04-06T05:22:17.510Z,8.97
2019-04-06T05:24:47.473Z,7.80
2019-04-06T05:27:17.361Z,8.03
2019-04-06T05:29:47.261Z,8.63
2019-04-06T05:32:17.224Z,9.10
2019-04-06T05:34:47.243Z,8.43
2019-04-06T05:37:17.177Z,9.90
2019-04-06T05:39:47.107Z,10.07
2019-04-06T05:42:17.039Z,9.00
2019-04-06T05:44:46.915Z,7.80
2019-04-06T05:47:16.841Z,9.83
2019-04-06T05:49:46.834Z,8.43
2019-04-06T05:52:16.706Z,7.93
2019-04-06T05:54:46.643Z,7.93
2019-04-06T05:57:16.568Z,7.40
2019-04-06T05:59:46.493Z,9.07
2019-04-06T06:02:16.449Z,8.00
2019-04-06T06:04:46.353Z,7.93
2019-04-06T06:07:16.242Z,8.77
2019-04-06T06:09:46.125Z,7.93
2019-04-06T06:12:16.225Z,9.27
2019-04-06T06:14:46.269Z,9.03
2019-04-06T06:17:16.135Z,8.63
2019-04-06T06:19:46.125Z,9.47
2019-04-06T06:22:15.978Z,7.97
2019-04-06T06:24:46.094Z,8.73
2019-04-06T06:27:16.338Z,8.40
2019-04-06T06:29:46.249Z,10.30
2019-04-06T06:32:16.093Z,7.60
2019-04-06T06:34:46.131Z,8.57
2019-04-06T06:37:16.065Z,8.20
2019-04-06T06:39:45.938Z,7.67
2019-04-06T06:42:15.774Z,8.67
2019-04-06T06:44:45.661Z,9.63
2019-04-06T06:47:15.533Z,8.83
2019-04-06T06:49:45.589Z,8.00
2019-04-06T06:52:15.775Z,9.30
2019-04-06T06:54:45.781Z,7.53
2019-04-06T06:57:15.784Z,9.63
2019-04-06T06:59:45.629Z,10.13
2019-04-06T07:02:15.785Z,9.10
2019-04-06T07:04:47.325Z,8.90
2019-04-06T07:07:17.133Z,9.30
2019-04-06T07:09:47.054Z,7.57
2019-04-06T07:12:16.978Z,8.27
2019-04-06T07:14:46.902Z,7.70
2019-04-06T07:17:16.825Z,8.13
2019-04-06T07:19:46.791Z,9.77
2019-04-06T07:22:16.628Z,8.37
2019-04-06T07:24:46.481Z,8.03
2019-04-06T07:27:16.410Z,8.33
2019-04-06T07:29:46.861Z,8.90
2019-04-06T07:32:16.983Z,8.73
2019-04-06T07:34:46.962Z,8.03
2019-04-06T07:37:16.744Z,8.43
2019-04-06T07:39:46.607Z,8.40
2019-04-06T07:42:16.466Z,8.40
2019-04-06T07:44:46.333Z,8.40
2019-04-06T07:47:16.183Z,8.27
2019-04-06T07:49:46.429Z,9.90
2019-04-06T07:52:17.551Z,8.50
2019-04-06T07:54:47.533Z,9.97
2019-04-06T07:57:17.458Z,8.83
2019-04-06T07:59:48.366Z,8.93
2019-04-06T08:02:18.345Z,8.33
2019-04-06T08:04:48.264Z,8.33
2019-04-06T08:07:18.121Z,8.80
2019-04-06T08:09:47.993Z,8.47
2019-04-06T08:12:18.034Z,9.30
2019-04-06T08:14:48.172Z,8.63
2019-04-06T08:17:18.183Z,7.83
2019-04-06T08:19:48.386Z,10.27
2019-04-06T08:22:18.417Z,11.30
2019-04-06T08:24:48.350Z,8.47
2019-04-06T08:27:19.233Z,8.27
2019-04-06T08:29:49.256Z,12.50
2019-04-06T08:32:19.100Z,9.10
2019-04-06T08:34:48.990Z,71.43
2019-04-06T08:37:18.873Z,24.10
2019-04-06T08:39:48.807Z,25.53
2019-04-06T08:42:18.770Z,27.27
2019-04-06T08:44:48.659Z,26.03
2019-04-06T08:47:18.593Z,25.63
2019-04-06T08:49:48.464Z,17.87
2019-04-06T08:52:18.625Z,19.47
2019-04-06T08:54:48.670Z,23.83
2019-04-06T08:57:18.590Z,25.37
2019-04-06T08:59:48.452Z,19.10
2019-04-06T09:02:18.801Z,23.27
2019-04-06T09:04:48.794Z,15.67
2019-04-06T09:07:18.805Z,19.63
2019-04-06T09:09:48.645Z,17.97
2019-04-06T09:12:18.518Z,16.13
2019-04-06T09:14:48.370Z,19.17
2019-04-06T09:17:18.298Z,21.77
2019-04-06T09:19:48.255Z,19.80
2019-04-06T09:22:18.101Z,22.37
2019-04-06T09:24:48.145Z,18.63
2019-04-06T09:27:18.143Z,17.30
2019-04-06T09:29:48.079Z,20.77
2019-04-06T09:32:18.023Z,17.97
2019-04-06T09:34:47.917Z,18.90
2019-04-06T09:37:17.910Z,18.43
2019-04-06T09:39:47.947Z,25.30
2019-04-06T09:42:18.034Z,23.20
2019-04-06T09:45:16.084Z,18.07
2019-04-06T09:48:10.778Z,23.87
2019-04-06T09:51:08.665Z,17.87
2019-04-06T09:54:06.285Z,18.83
2019-04-06T09:56:53.730Z,17.57
2019-04-06T09:59:41.315Z,18.90
2019-04-06T10:02:20.621Z,18.90
2019-04-06T10:05:08.513Z,21.80
2019-04-06T10:07:59.975Z,21.93
2019-04-06T10:10:47.422Z,20.90
2019-04-06T10:13:35.152Z,18.57
2019-04-06T10:16:35.972Z,26.63
2019-04-06T10:19:31.993Z,19.50
2019-04-06T10:22:38.750Z,20.53
2019-04-06T10:25:27.021Z,23.87
2019-04-06T10:28:15.831Z,19.73
2019-04-06T10:31:05.124Z,18.00
2019-04-06T10:33:50.829Z,21.40
2019-04-06T10:36:37.133Z,21.83
2019-04-06T10:39:26.068Z,22.33
2019-04-06T10:42:02.378Z,23.73
2019-04-06T10:44:51.758Z,27.53
2019-04-06T10:47:39.561Z,29.17
2019-04-06T10:50:15.960Z,21.60
2019-04-06T10:53:15.836Z,26.50
2019-04-06T10:56:03.307Z,32.27
2019-04-06T10:58:40.085Z,30.30
2019-04-06T11:01:29.051Z,30.57
2019-04-06T11:04:20.698Z,36.90
2019-04-06T11:07:08.205Z,34.47
2019-04-06T11:09:48.033Z,32.30
2019-04-06T11:12:34.446Z,32.97
2019-04-06T11:15:29.374Z,34.70
2019-04-06T11:18:16.895Z,28.43
2019-04-06T11:21:04.509Z,30.20
2019-04-06T11:23:43.490Z,27.17
2019-04-06T11:26:31.993Z,35.03
2019-04-06T11:29:33.013Z,33.47
2019-04-06T11:32:15.646Z,31.30
2019-04-06T11:35:13.550Z,31.07
2019-04-06T11:37:55.512Z,32.50
2019-04-06T11:40:53.485Z,30.93
2019-04-06T11:43:44.720Z,31.50
2019-04-06T11:46:46.924Z,25.33
2019-04-06T11:49:26.070Z,25.60
2019-04-06T11:52:13.524Z,26.90
2019-04-06T11:55:17.745Z,26.97
2019-04-06T11:58:07.105Z,22.97
2019-04-06T12:01:05.033Z,25.67
2019-04-06T12:03:43.685Z,30.10
2019-04-06T12:06:31.518Z,31.27
2019-04-06T12:09:20.429Z,26.57
2019-04-06T12:12:07.777Z,19.57
2019-04-06T12:14:46.727Z,19.30
2019-04-06T12:17:47.849Z,17.33
2019-04-06T12:20:55.083Z,20.70
2019-04-06T12:23:53.023Z,18.47
2019-04-06T12:26:40.630Z,18.83
2019-04-06T12:29:28.248Z,14.13
2019-04-06T12:32:16.515Z,13.07
2019-04-06T12:35:01.134Z,15.33
2019-04-06T12:37:52.878Z,17.33
2019-04-06T12:40:40.473Z,12.40
2019-04-06T12:43:31.044Z,18.50
2019-04-06T12:46:15.568Z,16.73
2019-04-06T12:48:59.981Z,17.53
2019-04-06T12:51:48.328Z,21.50
2019-04-06T12:54:40.353Z,20.37
2019-04-06T12:57:28.112Z,21.77
2019-04-06T13:00:26.115Z,16.90
2019-04-06T13:03:18.882Z,24.40
2019-04-06T13:05:56.208Z,19.80
2019-04-06T13:08:57.541Z,22.00
2019-04-06T13:12:03.230Z,14.27
2019-04-06T13:14:47.417Z,20.63
2019-04-06T13:17:45.715Z,18.30
2019-04-06T13:20:53.172Z,13.13
2019-04-06T13:23:34.161Z,16.93
2019-04-06T13:26:32.045Z,17.30
2019-04-06T13:29:17.142Z,17.63
2019-04-06T13:32:21.369Z,13.00
2019-04-06T13:35:18.997Z,16.73
2019-04-06T13:38:06.638Z,17.50
2019-04-06T13:40:54.274Z,14.57
2019-04-06T13:43:30.858Z,16.43
2019-04-06T13:46:22.549Z,18.73
2019-04-06T13:49:14.438Z,12.33
2019-04-06T13:52:06.349Z,13.23
2019-04-06T13:54:46.569Z,16.07
2019-04-06T13:57:22.889Z,17.80
2019-04-06T14:00:10.302Z,13.57
2019-04-06T14:03:02.117Z,20.47
2019-04-06T14:05:53.827Z,13.67
2019-04-06T14:08:43.838Z,11.13
2019-04-06T14:11:27.130Z,13.60
2019-04-06T14:14:10.345Z,22.30
2019-04-06T14:17:17.446Z,14.53
2019-04-06T14:19:55.813Z,18.47
2019-04-06T14:22:39.739Z,11.07
2019-04-06T14:25:34.755Z,16.77
2019-04-06T14:28:11.922Z,16.87
2019-04-06T14:30:53.154Z,13.87
2019-04-06T14:33:47.774Z,16.53
2019-04-06T14:36:55.005Z,14.70
2019-04-06T14:39:32.744Z,18.63
2019-04-06T14:42:20.742Z,13.17
2019-04-06T14:45:09.715Z,15.07
2019-04-06T14:48:01.644Z,16.77
2019-04-06T14:50:53.442Z,11.87
2019-04-06T14:53:51.615Z,16.80
2019-04-06T14:56:55.882Z,16.70
2019-04-06T14:59:47.817Z,18.63
2019-04-06T15:02:42.805Z,19.80
2019-04-06T15:05:29.821Z,19.83
2019-04-06T15:08:15.257Z,10.80
2019-04-06T15:11:03.034Z,24.20
2019-04-06T15:13:40.974Z,17.47
2019-04-06T15:16:48.422Z,16.70
2019-04-06T15:19:35.679Z,17.37
2019-04-06T15:22:30.780Z,14.43
2019-04-06T15:25:18.343Z,15.17
2019-04-06T15:28:16.710Z,18.07
2019-04-06T15:31:14.907Z,18.00
2019-04-06T15:33:58.325Z,16.57
2019-04-06T15:36:47.476Z,16.10
2019-04-06T15:39:26.188Z,10.73
2019-04-06T15:42:15.206Z,12.33
2019-04-06T15:45:02.911Z,15.70
2019-04-06T15:47:50.995Z,12.77
2019-04-06T15:50:41.211Z,15.93
2019-04-06T15:53:25.778Z,16.50
2019-04-06T15:56:20.736Z,13.53
2019-04-06T15:59:03.037Z,14.07
2019-04-06T16:02:01.342Z,14.50
2019-04-06T16:04:45.739Z,15.73
2019-04-06T16:07:50.303Z,15.50
2019-04-06T16:10:42.306Z,13.00
2019-04-06T16:13:30.142Z,14.20
2019-04-06T16:16:16.114Z,16.73
2019-04-06T16:19:07.776Z,13.27
2019-04-06T16:22:06.017Z,11.60
2019-04-06T16:24:53.605Z,14.13
2019-04-06T16:27:37.062Z,13.47
2019-04-06T16:30:23.689Z,12.27
2019-04-06T16:33:12.791Z,17.87
2019-04-06T16:35:53.731Z,20.57
2019-04-06T16:39:00.067Z,15.20
2019-04-06T16:41:51.979Z,20.43
2019-04-06T16:44:29.117Z,16.60
2019-04-06T16:47:20.599Z,16.97
2019-04-06T16:50:03.021Z,13.47
2019-04-06T16:52:50.670Z,19.93
2019-04-06T16:55:42.147Z,14.87
2019-04-06T16:58:38.508Z,13.03
2019-04-06T17:01:27.663Z,14.37
2019-04-06T17:04:06.923Z,16.97
2019-04-06T17:06:49.884Z,14.37
2019-04-06T17:09:42.142Z,12.90
2019-04-06T17:12:31.138Z,11.27
2019-04-06T17:15:38.058Z,11.53
2019-04-06T17:18:42.167Z,10.60
2019-04-06T17:21:22.862Z,16.57
2019-04-06T17:24:17.070Z,14.43
2019-04-06T17:27:04.982Z,11.97
2019-04-06T17:29:50.373Z,13.13
2019-04-06T17:32:38.273Z,9.90
2019-04-06T17:35:29.793Z,12.40
2019-04-06T17:38:18.032Z,10.37
2019-04-06T17:41:07.312Z,11.00
2019-04-06T17:43:50.761Z,10.50
2019-04-06T17:46:38.347Z,17.57
2019-04-06T17:49:39.365Z,11.40
2019-04-06T17:52:26.948Z,11.73
2019-04-06T17:55:27.874Z,14.13
2019-04-06T17:58:19.700Z,14.50
2019-04-06T18:01:11.860Z,10.30
2019-04-06T18:03:59.966Z,9.97
2019-04-06T18:06:48.114Z,9.60
2019-04-06T18:09:35.680Z,10.47
2019-04-06T18:12:17.634Z,10.63
2019-04-06T18:14:47.622Z,9.23
2019-04-06T18:17:17.626Z,12.47
2019-04-06T18:19:47.553Z,9.87
2019-04-06T18:22:17.624Z,11.27
2019-04-06T18:24:47.807Z,12.33
2019-04-06T18:27:18.380Z,13.20
2019-04-06T18:29:49.322Z,8.27
2019-04-06T18:32:41.314Z,13.63
2019-04-06T18:35:12.343Z,31.37
2019-04-06T18:37:51.349Z,19.57
2019-04-06T18:40:23.931Z,13.73
2019-04-06T18:42:54.444Z,18.13
2019-04-06T18:45:25.724Z,13.63
2019-04-06T18:47:55.909Z,10.80
2019-04-06T18:50:34.165Z,12.57
2019-04-06T18:52:57.784Z,12.13
2019-04-06T18:55:28.945Z,18.63
2019-04-06T18:58:08.709Z,21.77
2019-04-06T19:00:30.960Z,16.70
2019-04-06T19:03:12.554Z,18.47
2019-04-06T19:05:33.531Z,17.07
2019-04-06T19:08:05.164Z,18.70
2019-04-06T19:10:36.410Z,21.47
2019-04-06T19:13:07.159Z,19.93
2019-04-06T19:15:37.754Z,17.43
2019-04-06T19:18:07.839Z,17.43
2019-04-06T19:20:37.854Z,18.20
2019-04-06T19:23:09.460Z,18.57
2019-04-06T19:25:39.466Z,17.83
2019-04-06T19:28:11.002Z,17.53
2019-04-06T19:30:41.074Z,22.03
2019-04-06T19:33:22.671Z,21.43
2019-04-06T19:35:43.000Z,19.93
2019-04-06T19:38:13.152Z,21.83
2019-04-06T19:40:43.845Z,16.17
2019-04-06T19:43:15.943Z,18.30
2019-04-06T19:45:46.373Z,17.47
2019-04-06T19:48:16.477Z,19.73
2019-04-06T19:50:47.669Z,21.63
2019-04-06T19:53:17.805Z,21.33
2019-04-06T19:55:47.823Z,21.53
2019-04-06T19:58:18.034Z,21.27
2019-04-06T20:00:48.306Z,21.87
2019-04-06T20:03:19.353Z,24.03
2019-04-06T20:05:49.262Z,23.53
2019-04-06T20:08:20.606Z,23.57
2019-04-06T20:10:51.714Z,20.33
2019-04-06T20:13:22.229Z,21.17
2019-04-06T20:15:52.114Z,19.40
2019-04-06T20:18:23.614Z,19.17
2019-04-06T20:20:54.082Z,23.23
2019-04-06T20:23:24.366Z,24.63
2019-04-06T20:25:54.311Z,19.27
2019-04-06T20:28:24.645Z,22.37
2019-04-06T20:30:54.784Z,23.10
2019-04-06T20:33:24.805Z,19.40
2019-04-06T20:35:54.790Z,20.47
2019-04-06T20:38:24.962Z,23.13
2019-04-06T20:40:55.060Z,25.27
2019-04-06T20:43:25.139Z,19.67
2019-04-06T20:45:55.373Z,19.03
2019-04-06T20:48:25.739Z,19.87
2019-04-06T20:50:56.257Z,23.50
2019-04-06T20:53:26.282Z,20.57
2019-04-06T20:55:56.495Z,21.27
2019-04-06T20:58:45.766Z,18.57
2019-04-06T21:01:16.770Z,20.83
2019-04-06T21:03:57.773Z,21.53
2019-04-06T21:06:19.134Z,18.63
2019-04-06T21:09:01.245Z,19.33
2019-04-06T21:11:33.992Z,18.80
2019-04-06T21:14:04.344Z,21.67
2019-04-06T21:16:34.531Z,19.77
2019-04-06T21:19:04.803Z,17.87
2019-04-06T21:21:35.296Z,22.63
2019-04-06T21:24:06.791Z,23.60
2019-04-06T21:26:37.154Z,23.20
2019-04-06T21:29:07.206Z,19.13
2019-04-06T21:31:37.225Z,20.97
2019-04-06T21:34:12.042Z,17.83
2019-04-06T21:36:39.397Z,20.93
2019-04-06T21:39:09.755Z,20.07
2019-04-06T21:41:40.649Z,17.67
2019-04-06T21:44:11.215Z,19.17
2019-04-06T21:46:41.941Z,24.23
2019-04-06T21:49:13.476Z,19.50
2019-04-06T21:51:43.622Z,20.93
2019-04-06T21:54:13.742Z,19.27
2019-04-06T21:56:43.846Z,19.03
2019-04-06T21:59:16.072Z,17.67
2019-04-06T22:01:45.763Z,18.93
2019-04-06T22:04:23.704Z,19.73
2019-04-06T22:06:47.551Z,19.43
2019-04-06T22:09:17.584Z,18.00
2019-04-06T22:11:48.186Z,18.97
2019-04-06T22:14:20.152Z,17.63
2019-04-06T22:16:50.638Z,17.77
2019-04-06T22:19:20.635Z,18.20
2019-04-06T22:21:51.636Z,20.00
2019-04-06T22:24:22.109Z,20.90
2019-04-06T22:26:52.200Z,18.37
2019-04-06T22:29:22.373Z,18.03
2019-04-06T22:31:52.722Z,18.87
2019-04-06T22:34:34.046Z,18.27
2019-04-06T22:36:54.328Z,20.57
2019-04-06T22:39:24.789Z,17.80
2019-04-06T22:41:54.852Z,20.43
2019-04-06T22:44:25.345Z,20.57
2019-04-06T22:46:55.351Z,19.87
2019-04-06T22:49:25.233Z,20.77
2019-04-06T22:51:55.211Z,19.53
2019-04-06T22:54:25.215Z,17.73
2019-04-06T22:56:55.123Z,21.63
2019-04-06T22:59:25.614Z,18.57
2019-04-06T23:01:56.027Z,18.53
2019-04-06T23:04:50.929Z,19.10
2019-04-06T23:07:21.776Z,18.93
2019-04-06T23:09:52.081Z,20.57
2019-04-06T23:12:22.228Z,19.97
2019-04-06T23:14:53.815Z,20.40
2019-04-06T23:17:23.827Z,19.37
2019-04-06T23:19:53.773Z,21.73
2019-04-06T23:22:23.750Z,21.33
2019-04-06T23:24:53.727Z,19.53
2019-04-06T23:27:24.268Z,20.07
2019-04-06T23:29:54.341Z,21.10
2019-04-06T23:32:24.309Z,20.80
2019-04-06T23:35:00.726Z,18.47
2019-04-06T23:37:25.850Z,18.90
2019-04-06T23:39:56.158Z,19.83
2019-04-06T23:42:26.349Z,20.47
2019-04-06T23:44:56.788Z,22.07
2019-04-06T23:47:27.382Z,21.03
2019-04-06T23:49:57.483Z,19.37
2019-04-06T23:52:27.468Z,19.33
2019-04-06T23:54:58.025Z,18.97
2019-04-06T23:57:27.910Z,19.93
2019-04-06T23:59:58.180Z,20.33
